Skip Navigation Links Skip Navigation Links

Current Weather

Kenosha Regional, Kenosha, Wis.

For information only: do not use for flight planning or navigation.
Latest weather
Observation time Wednesday, October 27, 2021 1:53 AM CDT
Local time Wednesday, October 27, 2021 2:51 AM CDT
Flight conditions Marginal Visual Meteorological Conditions
Winds
Wind direction North (350°)
Wind speed 5 mph
Visibility 10 mi.
Sky condition
Ceiling 2,500 ft. broken clouds
Cloud layer broken clouds 2,500 ft.
Temperature 39°F
Dewpoint 37°F
Altimeter 30.03 in.Hg
Derived measurements
Relative humidity 93%
Wind chill 36°F
Density altitude -617 ft.
Sea-level pressure 30.04 in.Hg
Remarks
Fully automated report.
Automated weather observing station with precipitation discriminator.
METAR KENW 270653Z AUTO 35004KT 10SM BKN025 04/03 A3003 RMK AO2 SLP172 T00390028

Settings

Location code

InnerDrive.Weather 4.0.6770.0 Release CLR 4.0.30319.42000
Copyright ©2018 Inner Drive Technology. All rights reserved. Portions Copyright ©1986-2018 David Braverman.

Find weather

Site navigation


Skip Navigation Links

Place info

Page info

PayPal - The safer, easier way to pay online!

Return home.

Copyright ©2021 Inner Drive Technology. Purveyors of fine, hand-crafted computer software. Page printed 2021-10-27T07:51:46 UTC.